Pagina principală
METAR-TAF:

METAR-TAF

Aeroporturi :

Târgu Mureș, România

Aeroportul Internațional Transilvania

Latitudine: 46-32N, longitudine: 024-32E, elevație: 308 m

Observații meteo curente

Raportul a fost făcut în urmă cu 27 de minute, la 06:00 UTC
Vânt 2 kt de la Est/Nord-est
Temperatură 8°C
Umiditate 93%
Presiune 1016 hPa
Vizibilitate: 4300 m
Nori împrăștiați la o înălțime de 3600 picior
Ceață subțire la sol, aer cețos

METAR: LRTM 220600Z 06002KT 4300 MIFG BR SCT036 08/07 Q1016

Ora: 09:27 (06:27 UTC)

Prognoză

Raportul a fost făcut în urmă cu 1 oră și 27 de minute, la 05:00 UTC
Prognoză valabilă de la 22 ora 06 UTC la 22 ora 15 UTC
Vânt 4 kt din direcții variabile
Vizibilitate: 7000 m
Nori împrăștiați la o înălțime de 3000 picior
Probabilitate 40% :
Temporar
de la 22 ora 06 UTC la 22 ora 08 UTC
Nori fragmentați la o înălțime de 1500 picior

TAF: LRTM 220500Z 2206/2215 VRB04KT 7000 SCT030 PROB40 TEMPO 2206/2208 BKN015

Observații și prognoze meteo pentru peste 4.000 de aeroporturi (rapoarte METAR și TAF).

Stațiile disponibile sunt reprezentate pe hartă prin puncte galbene și roșii.

Țineți indicatorul mouse-ului pe punctul dorit pentru a vedea denumirea stației.

Apoi, faceți clic pentru a vedea observațiile și prognozele meteorologice.

Pentru a schimba harta: Pentru mărire, faceți clic pe butoanele verzi cu cruce neagră; pentru micșorare, pe butonul verde cu o liniuță; pentru hărți învecinate, pe săgețile verzi.


METAR-TAF: